createdAt,value
2019-03-19T00:01:20.380Z,1.50
2019-03-19T00:03:51.420Z,1.50
2019-03-19T00:06:21.416Z,1.43
2019-03-19T00:08:51.416Z,1.20
2019-03-19T00:11:21.372Z,1.40
2019-03-19T00:13:51.330Z,1.37
2019-03-19T00:16:21.304Z,1.63
2019-03-19T00:18:51.298Z,1.73
2019-03-19T00:21:21.320Z,1.33
2019-03-19T00:23:51.283Z,1.43
2019-03-19T00:26:21.307Z,1.70
2019-03-19T00:28:51.301Z,1.27
2019-03-19T00:31:21.256Z,1.83
2019-03-19T00:33:51.263Z,1.10
2019-03-19T00:36:21.276Z,1.50
2019-03-19T00:38:51.388Z,1.47
2019-03-19T00:41:21.344Z,1.60
2019-03-19T00:43:51.317Z,1.47
2019-03-19T00:46:21.289Z,1.60
2019-03-19T00:48:51.549Z,1.57
2019-03-19T00:51:21.528Z,1.80
2019-03-19T00:53:51.479Z,1.50
2019-03-19T00:56:21.474Z,1.00
2019-03-19T00:58:52.709Z,1.80
2019-03-19T01:01:22.658Z,0.80
2019-03-19T01:03:52.694Z,1.00
2019-03-19T01:06:23.662Z,1.57
2019-03-19T01:08:54.479Z,1.00
2019-03-19T01:11:24.500Z,1.50
2019-03-19T01:13:54.527Z,1.53
2019-03-19T01:16:24.673Z,1.80
2019-03-19T01:18:54.702Z,1.43
2019-03-19T01:21:24.649Z,1.27
2019-03-19T01:23:54.634Z,1.37
2019-03-19T01:26:24.585Z,1.00
2019-03-19T01:28:54.556Z,1.17
2019-03-19T01:31:24.605Z,1.17
2019-03-19T01:33:54.581Z,1.23
2019-03-19T01:36:24.560Z,1.23
2019-03-19T01:38:54.559Z,1.13
2019-03-19T01:41:24.568Z,1.43
2019-03-19T01:43:54.864Z,1.17
2019-03-19T01:46:24.866Z,1.67
2019-03-19T01:48:54.873Z,1.30
2019-03-19T01:51:24.924Z,1.00
2019-03-19T01:53:54.930Z,1.27
2019-03-19T01:56:24.863Z,1.40
2019-03-19T01:58:55.159Z,1.30
2019-03-19T02:01:25.230Z,1.13
2019-03-19T02:03:55.259Z,1.30
2019-03-19T02:06:25.279Z,1.93
2019-03-19T02:08:55.404Z,1.10
2019-03-19T02:11:25.413Z,1.27
2019-03-19T02:13:55.443Z,1.60
2019-03-19T02:16:25.428Z,1.27
2019-03-19T02:18:55.423Z,1.77
2019-03-19T02:21:25.424Z,1.30
2019-03-19T02:23:55.458Z,1.73
2019-03-19T02:26:26.702Z,1.43
2019-03-19T02:28:56.660Z,1.40
2019-03-19T02:31:27.013Z,1.13
2019-03-19T02:33:57.088Z,1.13
2019-03-19T02:36:27.215Z,1.73
2019-03-19T02:38:57.265Z,1.20
2019-03-19T02:41:27.269Z,1.40
2019-03-19T02:43:57.261Z,1.03
2019-03-19T02:46:27.218Z,1.73
2019-03-19T02:48:57.169Z,1.50
2019-03-19T02:51:27.233Z,2.07
2019-03-19T02:53:57.210Z,1.73
2019-03-19T02:56:33.210Z,1.63
2019-03-19T02:58:58.957Z,1.60
2019-03-19T03:01:29.618Z,1.70
2019-03-19T03:03:59.632Z,1.03
2019-03-19T03:06:29.674Z,1.27
2019-03-19T03:08:59.611Z,1.90
2019-03-19T03:11:29.599Z,1.63
2019-03-19T03:14:00.695Z,1.23
2019-03-19T03:16:30.670Z,1.57
2019-03-19T03:19:00.671Z,1.20
2019-03-19T03:21:30.631Z,1.90
2019-03-19T03:24:00.569Z,1.33
2019-03-19T03:26:30.834Z,1.13
2019-03-19T03:29:00.879Z,1.40
2019-03-19T03:31:30.824Z,1.70
2019-03-19T03:34:00.801Z,1.00
2019-03-19T03:36:30.784Z,1.43
2019-03-19T03:39:01.802Z,1.30
2019-03-19T03:41:32.945Z,1.30
2019-03-19T03:44:03.881Z,1.30
2019-03-19T03:46:33.813Z,1.23
2019-03-19T03:49:04.444Z,1.45
2019-03-19T03:51:34.471Z,1.17
2019-03-19T03:54:04.587Z,1.40
2019-03-19T03:56:34.579Z,1.40
2019-03-19T03:59:04.639Z,1.13
2019-03-19T04:01:34.690Z,1.40
2019-03-19T04:04:04.757Z,1.57
2019-03-19T04:06:34.736Z,1.50
2019-03-19T04:09:09.155Z,1.30
2019-03-19T04:11:37.764Z,1.30
2019-03-19T04:14:07.749Z,1.20
2019-03-19T04:16:38.484Z,1.70
2019-03-19T04:19:08.501Z,1.70
2019-03-19T04:21:38.473Z,1.37
2019-03-19T04:24:08.481Z,1.07
2019-03-19T04:26:38.850Z,1.10
2019-03-19T04:29:08.836Z,2.37
2019-03-19T04:31:38.795Z,1.40
2019-03-19T04:34:08.744Z,1.17
2019-03-19T04:36:38.766Z,1.30
2019-03-19T04:39:09.081Z,1.27
2019-03-19T04:41:39.032Z,1.27
2019-03-19T04:44:10.900Z,1.43
2019-03-19T04:46:40.918Z,1.10
2019-03-19T04:49:10.937Z,2.23
2019-03-19T04:51:40.956Z,1.30
2019-03-19T04:54:10.943Z,1.80
2019-03-19T04:56:40.956Z,1.50
2019-03-19T04:59:10.927Z,1.33
2019-03-19T05:01:40.984Z,1.53
2019-03-19T05:04:10.948Z,1.50
2019-03-19T05:06:41.018Z,1.30
2019-03-19T05:09:11.085Z,1.07
2019-03-19T05:11:41.070Z,1.57
2019-03-19T05:14:11.100Z,1.43
2019-03-19T05:16:42.234Z,1.57
2019-03-19T05:19:12.264Z,1.83
2019-03-19T05:21:42.216Z,1.50
2019-03-19T05:24:12.225Z,2.00
2019-03-19T05:26:42.194Z,1.57
2019-03-19T05:29:12.266Z,1.77
2019-03-19T05:31:42.216Z,1.50
2019-03-19T05:34:12.190Z,1.30
2019-03-19T05:36:42.192Z,1.50
2019-03-19T05:39:12.221Z,1.27
2019-03-19T05:41:42.200Z,1.23
2019-03-19T05:44:12.308Z,1.10
2019-03-19T05:46:42.316Z,1.33
2019-03-19T05:49:12.311Z,1.77
2019-03-19T05:51:42.278Z,1.10
2019-03-19T05:54:12.233Z,1.40
2019-03-19T05:56:42.216Z,1.23
2019-03-19T05:59:12.281Z,1.10
2019-03-19T06:01:42.350Z,1.30
2019-03-19T06:04:12.388Z,1.67
2019-03-19T06:06:42.451Z,1.20
2019-03-19T06:09:12.497Z,1.43
2019-03-19T06:11:42.511Z,1.30
2019-03-19T06:14:13.056Z,1.33
2019-03-19T06:16:43.218Z,1.50
2019-03-19T06:19:13.294Z,1.43
2019-03-19T06:21:43.484Z,1.60
2019-03-19T06:24:13.731Z,2.70
2019-03-19T06:26:43.700Z,1.53
2019-03-19T06:29:13.742Z,1.00
2019-03-19T06:31:43.684Z,2.00
2019-03-19T06:34:13.791Z,3.20
2019-03-19T06:36:46.806Z,2.77
2019-03-19T06:39:16.816Z,1.53
2019-03-19T06:41:47.235Z,1.37
2019-03-19T06:44:18.147Z,1.30
2019-03-19T06:46:48.331Z,1.93
2019-03-19T06:49:18.359Z,1.50
2019-03-19T06:51:48.361Z,1.70
2019-03-19T06:54:18.380Z,1.67
2019-03-19T06:56:48.462Z,1.27
2019-03-19T06:59:20.621Z,1.70
2019-03-19T07:01:50.886Z,1.93
2019-03-19T07:04:20.886Z,1.80
2019-03-19T07:06:51.057Z,2.20
2019-03-19T07:09:21.079Z,1.70
2019-03-19T07:11:51.151Z,1.30
2019-03-19T07:14:21.191Z,1.20
2019-03-19T07:16:51.187Z,1.40
2019-03-19T07:19:21.256Z,2.23
2019-03-19T07:21:51.390Z,1.57
2019-03-19T07:24:21.533Z,1.20
2019-03-19T07:26:52.702Z,1.37
2019-03-19T07:29:22.656Z,1.90
2019-03-19T07:31:52.695Z,2.30
2019-03-19T07:34:22.659Z,1.17
2019-03-19T07:36:52.769Z,1.47
2019-03-19T07:39:22.785Z,1.73
2019-03-19T07:41:52.808Z,1.90
2019-03-19T07:44:22.945Z,1.93
2019-03-19T07:46:52.981Z,2.20
2019-03-19T07:49:23.057Z,1.80
2019-03-19T07:51:53.602Z,2.10
2019-03-19T07:54:24.819Z,2.10
2019-03-19T07:56:54.910Z,2.47
2019-03-19T07:59:25.317Z,2.97
2019-03-19T08:01:55.279Z,2.20
2019-03-19T08:04:25.364Z,2.57
2019-03-19T08:06:55.389Z,2.50
2019-03-19T08:09:25.550Z,2.20
2019-03-19T08:11:55.564Z,2.93
2019-03-19T08:14:25.668Z,2.27
2019-03-19T08:16:55.673Z,3.30
2019-03-19T08:19:25.758Z,3.13
2019-03-19T08:21:55.979Z,2.43
2019-03-19T08:24:26.013Z,3.73
2019-03-19T08:26:56.001Z,2.50
2019-03-19T08:29:25.982Z,3.23
2019-03-19T08:31:56.036Z,3.03
2019-03-19T08:34:26.136Z,3.33
2019-03-19T08:36:56.182Z,4.10
2019-03-19T08:39:26.326Z,3.93
2019-03-19T08:41:56.369Z,4.63
2019-03-19T08:44:27.883Z,4.10
2019-03-19T08:47:00.521Z,4.23
2019-03-19T08:49:30.518Z,2.57
2019-03-19T08:52:00.764Z,4.40
2019-03-19T08:54:32.633Z,5.23
2019-03-19T08:57:03.813Z,5.77
2019-03-19T08:59:33.768Z,5.43
2019-03-19T09:02:04.818Z,6.53
2019-03-19T09:04:34.891Z,7.63
2019-03-19T09:07:05.710Z,5.57
2019-03-19T09:09:35.894Z,4.87
2019-03-19T09:12:05.905Z,5.50
2019-03-19T09:14:35.913Z,3.90
2019-03-19T09:17:05.876Z,4.40
2019-03-19T09:19:37.202Z,3.23
2019-03-19T09:22:07.384Z,3.67
2019-03-19T09:24:37.663Z,2.80
2019-03-19T09:27:07.967Z,2.60
2019-03-19T09:29:39.775Z,2.27
2019-03-19T09:32:09.855Z,3.77
2019-03-19T09:34:39.867Z,3.03
2019-03-19T09:37:11.163Z,1.90
2019-03-19T09:39:41.256Z,2.77
2019-03-19T09:42:11.525Z,2.47
2019-03-19T09:44:41.481Z,2.60
2019-03-19T09:47:11.475Z,2.53
2019-03-19T09:49:41.450Z,1.67
2019-03-19T09:52:11.407Z,1.90
2019-03-19T09:54:42.542Z,2.17
2019-03-19T09:57:13.720Z,1.70
2019-03-19T09:59:44.905Z,2.70
2019-03-19T10:02:15.549Z,2.00
2019-03-19T10:04:45.598Z,1.73
2019-03-19T10:07:15.657Z,2.07
2019-03-19T10:09:45.800Z,1.87
2019-03-19T10:12:15.800Z,2.00
2019-03-19T10:14:45.833Z,1.47
2019-03-19T10:17:16.040Z,1.37
2019-03-19T10:19:46.146Z,1.50
2019-03-19T10:22:16.681Z,2.27
2019-03-19T10:24:49.091Z,1.40
2019-03-19T10:27:19.711Z,1.37
2019-03-19T10:29:50.099Z,1.90
2019-03-19T10:32:20.247Z,2.07
2019-03-19T10:34:50.398Z,1.43
2019-03-19T10:37:20.377Z,1.80
2019-03-19T10:39:50.529Z,1.13
2019-03-19T10:42:21.659Z,1.27
2019-03-19T10:44:51.836Z,1.70
2019-03-19T10:47:22.190Z,1.27
2019-03-19T10:49:52.211Z,1.13
2019-03-19T10:52:22.470Z,1.70
2019-03-19T10:54:52.614Z,1.03
2019-03-19T10:57:22.743Z,1.33
2019-03-19T10:59:55.975Z,1.90
2019-03-19T11:02:26.134Z,1.53
2019-03-19T11:04:56.297Z,1.30
2019-03-19T11:07:26.699Z,1.57
2019-03-19T11:09:57.016Z,1.00
2019-03-19T11:12:27.327Z,1.40
2019-03-19T11:14:57.564Z,2.07
2019-03-19T11:17:28.718Z,1.57
2019-03-19T11:19:58.815Z,1.30
2019-03-19T11:22:28.759Z,1.77
2019-03-19T11:24:58.889Z,1.57
2019-03-19T11:27:28.860Z,1.67
2019-03-19T11:29:59.962Z,1.63
2019-03-19T11:32:30.798Z,1.80
2019-03-19T11:35:00.925Z,1.63
2019-03-19T11:37:31.021Z,1.33
2019-03-19T11:40:01.824Z,1.70
2019-03-19T11:42:32.319Z,1.00
2019-03-19T11:45:02.364Z,1.67
2019-03-19T11:47:32.603Z,1.20
2019-03-19T11:50:05.748Z,2.57
2019-03-19T11:52:35.856Z,2.43
2019-03-19T11:55:06.227Z,1.50
2019-03-19T11:57:36.230Z,1.60
2019-03-19T12:00:11.551Z,1.47
2019-03-19T12:02:38.989Z,1.53
2019-03-19T12:05:09.047Z,1.17
2019-03-19T12:07:39.014Z,1.63
2019-03-19T12:10:09.095Z,1.47
2019-03-19T12:12:39.105Z,1.30
2019-03-19T12:15:09.281Z,1.57
2019-03-19T12:17:39.425Z,1.00
2019-03-19T12:20:09.545Z,1.10
2019-03-19T12:22:39.567Z,1.40
2019-03-19T12:25:10.218Z,2.20
2019-03-19T12:27:40.351Z,1.40
2019-03-19T12:30:21.676Z,2.37
2019-03-19T12:32:43.828Z,1.67
2019-03-19T12:35:14.537Z,1.60
2019-03-19T12:37:44.856Z,1.40
2019-03-19T12:40:15.166Z,1.57
2019-03-19T12:42:45.241Z,1.30
2019-03-19T12:45:15.322Z,1.00
2019-03-19T12:47:45.291Z,1.60
2019-03-19T12:50:15.784Z,1.97
2019-03-19T12:52:45.847Z,1.87
2019-03-19T12:55:15.999Z,1.83
2019-03-19T12:57:46.107Z,1.40
2019-03-19T13:00:16.844Z,0.87
2019-03-19T13:02:46.950Z,1.70
2019-03-19T13:05:17.078Z,1.70
2019-03-19T13:07:47.357Z,0.97
2019-03-19T13:10:17.705Z,1.40
2019-03-19T13:12:49.028Z,1.87
2019-03-19T13:15:19.621Z,2.07
2019-03-19T13:17:51.100Z,1.37
2019-03-19T13:20:21.233Z,1.10
2019-03-19T13:22:52.036Z,1.20
2019-03-19T13:25:22.092Z,1.80
2019-03-19T13:27:52.237Z,1.10
2019-03-19T13:30:22.423Z,1.00
2019-03-19T13:32:52.490Z,1.20
2019-03-19T13:35:22.542Z,1.10
2019-03-19T13:37:53.696Z,1.20
2019-03-19T13:40:23.945Z,1.07
2019-03-19T13:42:53.904Z,1.70
2019-03-19T13:45:23.990Z,1.70
2019-03-19T13:47:54.051Z,1.50
2019-03-19T13:50:24.238Z,1.67
2019-03-19T13:52:54.298Z,1.70
2019-03-19T13:55:24.525Z,1.23
2019-03-19T13:57:54.651Z,1.20
2019-03-19T14:00:24.704Z,1.13
2019-03-19T14:02:54.693Z,1.17
2019-03-19T14:05:24.828Z,1.50
2019-03-19T14:07:55.470Z,1.20
2019-03-19T14:10:26.334Z,1.23
2019-03-19T14:12:56.595Z,1.13
2019-03-19T14:15:27.013Z,2.30
2019-03-19T14:17:57.273Z,1.30
2019-03-19T14:20:27.446Z,1.20
2019-03-19T14:22:57.699Z,1.53
2019-03-19T14:25:27.663Z,1.40
2019-03-19T14:27:57.625Z,1.10
2019-03-19T14:30:28.044Z,1.57
2019-03-19T14:32:58.212Z,1.57
2019-03-19T14:35:36.911Z,1.20
2019-03-19T14:38:00.921Z,1.10
2019-03-19T14:40:31.006Z,0.90
2019-03-19T14:43:01.562Z,1.40
2019-03-19T14:45:31.869Z,1.00
2019-03-19T14:48:02.945Z,1.43
2019-03-19T14:50:32.956Z,1.20
2019-03-19T14:53:03.750Z,1.30
2019-03-19T14:55:34.022Z,1.10
2019-03-19T14:58:04.841Z,0.87
2019-03-19T15:00:35.762Z,1.20
2019-03-19T15:03:06.025Z,1.20
2019-03-19T15:05:36.185Z,1.20
2019-03-19T15:08:06.232Z,1.30
2019-03-19T15:10:36.305Z,0.90
2019-03-19T15:13:06.333Z,1.20
2019-03-19T15:15:36.822Z,0.90
2019-03-19T15:18:07.190Z,1.20
2019-03-19T15:20:37.211Z,1.90
2019-03-19T15:23:07.409Z,1.33
2019-03-19T15:25:37.702Z,1.10
2019-03-19T15:28:07.720Z,1.23
2019-03-19T15:30:38.848Z,1.50
2019-03-19T15:33:08.944Z,1.23
2019-03-19T15:35:39.053Z,1.53
2019-03-19T15:38:08.981Z,1.30
2019-03-19T15:40:39.122Z,1.70
2019-03-19T15:43:09.103Z,2.20
2019-03-19T15:45:39.424Z,2.37
2019-03-19T15:48:09.709Z,1.23
2019-03-19T15:50:39.967Z,2.00
2019-03-19T15:53:10.006Z,1.27
2019-03-19T15:55:39.997Z,1.60
2019-03-19T15:58:10.323Z,1.60
2019-03-19T16:00:40.430Z,1.23
2019-03-19T16:03:12.217Z,1.60
2019-03-19T16:05:42.318Z,1.50
2019-03-19T16:08:12.312Z,1.40
2019-03-19T16:10:42.311Z,1.63
2019-03-19T16:13:12.504Z,1.90
2019-03-19T16:15:43.953Z,1.17
2019-03-19T16:18:13.930Z,1.50
2019-03-19T16:20:43.993Z,1.40
2019-03-19T16:23:14.086Z,1.80
2019-03-19T16:25:44.209Z,1.97
2019-03-19T16:28:14.177Z,2.03
2019-03-19T16:30:44.261Z,2.10
2019-03-19T16:33:14.265Z,1.33
2019-03-19T16:35:44.341Z,1.53
2019-03-19T16:38:14.388Z,1.70
2019-03-19T16:40:44.478Z,1.53
2019-03-19T16:43:14.479Z,1.27
2019-03-19T16:45:44.758Z,1.30
2019-03-19T16:48:14.939Z,1.43
2019-03-19T16:50:44.957Z,1.07
2019-03-19T16:53:14.983Z,1.50
2019-03-19T16:55:44.987Z,1.80
2019-03-19T16:58:15.201Z,1.60
2019-03-19T17:00:45.244Z,1.27
2019-03-19T17:03:15.349Z,1.50
2019-03-19T17:05:45.351Z,1.10
2019-03-19T17:08:15.400Z,1.53
2019-03-19T17:10:45.444Z,1.60
2019-03-19T17:13:15.555Z,2.03
2019-03-19T17:15:46.014Z,1.50
2019-03-19T17:18:16.058Z,1.30
2019-03-19T17:20:46.111Z,1.83
2019-03-19T17:23:16.158Z,2.80
2019-03-19T17:25:46.137Z,1.83
2019-03-19T17:28:22.403Z,1.33
2019-03-19T17:30:47.953Z,1.50
2019-03-19T17:33:18.011Z,1.40
2019-03-19T17:35:48.082Z,1.77
2019-03-19T17:38:18.105Z,1.43
2019-03-19T17:40:48.178Z,1.87
2019-03-19T17:43:18.265Z,1.43
2019-03-19T17:45:48.272Z,1.50
2019-03-19T17:48:40.394Z,1.43
2019-03-19T17:51:28.385Z,1.93
2019-03-19T17:53:58.348Z,1.67
2019-03-19T17:56:46.667Z,1.30
2019-03-19T17:59:16.693Z,1.30
2019-03-19T18:01:46.754Z,1.50
2019-03-19T18:04:16.747Z,1.40
2019-03-19T18:06:46.822Z,1.47
2019-03-19T18:09:16.979Z,1.30
2019-03-19T18:11:47.069Z,1.43
2019-03-19T18:14:17.133Z,1.70
2019-03-19T18:16:47.118Z,1.40
2019-03-19T18:19:17.235Z,1.63
2019-03-19T18:21:47.294Z,1.97
2019-03-19T18:24:17.290Z,1.40
2019-03-19T18:26:47.334Z,1.40
2019-03-19T18:29:17.321Z,1.73
2019-03-19T18:31:47.312Z,1.57
2019-03-19T18:34:19.154Z,1.63
2019-03-19T18:36:49.098Z,1.60
2019-03-19T18:39:19.176Z,1.57
2019-03-19T18:41:50.407Z,1.43
2019-03-19T18:44:20.658Z,1.73
2019-03-19T18:46:50.821Z,2.00
2019-03-19T18:49:20.799Z,1.70
2019-03-19T18:51:51.888Z,1.40
2019-03-19T18:54:22.128Z,1.40
2019-03-19T18:56:52.197Z,1.40
2019-03-19T18:59:22.175Z,2.17
2019-03-19T19:01:53.154Z,2.00
2019-03-19T19:04:23.163Z,1.80
2019-03-19T19:06:53.297Z,1.90
2019-03-19T19:09:23.269Z,2.17
2019-03-19T19:11:53.370Z,2.00
2019-03-19T19:14:23.377Z,2.13
2019-03-19T19:16:53.376Z,1.80
2019-03-19T19:19:23.339Z,2.40
2019-03-19T19:21:53.324Z,2.70
2019-03-19T19:24:23.340Z,2.90
2019-03-19T19:26:53.344Z,2.00
2019-03-19T19:29:23.417Z,2.10
2019-03-19T19:31:53.374Z,1.87
2019-03-19T19:34:23.463Z,2.73
2019-03-19T19:36:53.639Z,4.80
2019-03-19T19:39:23.647Z,2.23
2019-03-19T19:41:54.411Z,2.20
2019-03-19T19:44:29.882Z,2.30
2019-03-19T19:46:59.819Z,2.47
2019-03-19T19:49:29.773Z,2.30
2019-03-19T19:51:59.737Z,2.67
2019-03-19T19:54:29.734Z,2.03
2019-03-19T19:56:59.652Z,2.27
2019-03-19T19:59:29.770Z,2.27
2019-03-19T20:01:59.819Z,1.73
2019-03-19T20:04:29.806Z,2.30
2019-03-19T20:06:59.766Z,2.57
2019-03-19T20:09:29.735Z,2.47
2019-03-19T20:11:59.686Z,2.60
2019-03-19T20:14:29.763Z,2.80
2019-03-19T20:16:59.815Z,2.30
2019-03-19T20:19:29.825Z,2.10
2019-03-19T20:21:59.940Z,2.20
2019-03-19T20:24:30.022Z,2.70
2019-03-19T20:27:01.068Z,1.97
2019-03-19T20:29:32.027Z,2.17
2019-03-19T20:32:02.004Z,3.17
2019-03-19T20:34:32.188Z,2.60
2019-03-19T20:37:02.362Z,2.40
2019-03-19T20:39:32.421Z,3.07
2019-03-19T20:42:02.395Z,2.30
2019-03-19T20:44:33.393Z,4.57
2019-03-19T20:47:04.656Z,3.80
2019-03-19T20:49:34.641Z,2.50
2019-03-19T20:52:04.769Z,2.10
2019-03-19T20:54:34.782Z,2.50
2019-03-19T20:57:04.848Z,2.90
2019-03-19T20:59:34.826Z,3.23
2019-03-19T21:02:04.839Z,2.93
2019-03-19T21:04:34.766Z,2.07
2019-03-19T21:07:04.705Z,2.83
2019-03-19T21:09:34.711Z,3.00
2019-03-19T21:12:05.175Z,4.23
2019-03-19T21:14:35.157Z,3.33
2019-03-19T21:17:05.188Z,3.40
2019-03-19T21:19:35.410Z,2.87
2019-03-19T21:22:05.452Z,2.50
2019-03-19T21:24:35.545Z,5.47
2019-03-19T21:27:05.580Z,2.90
2019-03-19T21:29:36.622Z,2.70
2019-03-19T21:32:06.766Z,3.00
2019-03-19T21:34:36.810Z,3.43
2019-03-19T21:37:06.866Z,4.90
2019-03-19T21:39:36.841Z,3.97
2019-03-19T21:42:06.907Z,3.30
2019-03-19T21:44:37.990Z,4.77
2019-03-19T21:47:08.343Z,3.00
2019-03-19T21:49:38.364Z,3.27
2019-03-19T21:52:08.624Z,3.07
2019-03-19T21:54:39.770Z,3.30
2019-03-19T21:57:09.822Z,2.63
2019-03-19T21:59:39.837Z,2.83
2019-03-19T22:02:09.961Z,2.67
2019-03-19T22:04:40.014Z,3.13
2019-03-19T22:07:10.058Z,2.63
2019-03-19T22:09:40.123Z,3.03
2019-03-19T22:12:10.248Z,3.63
2019-03-19T22:14:40.205Z,3.10
2019-03-19T22:17:10.168Z,2.97
2019-03-19T22:19:40.744Z,3.60
2019-03-19T22:22:10.759Z,3.23
2019-03-19T22:24:42.574Z,3.30
2019-03-19T22:27:12.672Z,3.73
2019-03-19T22:29:43.742Z,3.37
2019-03-19T22:32:13.914Z,3.07
2019-03-19T22:34:43.960Z,5.83
2019-03-19T22:37:13.906Z,3.40
2019-03-19T22:39:43.888Z,4.50
2019-03-19T22:42:13.863Z,4.03
2019-03-19T22:44:43.820Z,3.53
2019-03-19T22:47:13.970Z,3.43
2019-03-19T22:49:44.002Z,3.77
2019-03-19T22:52:13.992Z,3.30
2019-03-19T22:54:43.928Z,4.50
2019-03-19T22:57:13.953Z,3.77
2019-03-19T22:59:43.964Z,9.30
2019-03-19T23:02:14.027Z,5.73
2019-03-19T23:04:44.055Z,4.17
2019-03-19T23:07:14.045Z,4.10
2019-03-19T23:09:44.243Z,7.33
2019-03-19T23:12:14.279Z,3.70
2019-03-19T23:14:45.907Z,3.57
2019-03-19T23:17:15.999Z,3.83
2019-03-19T23:19:46.901Z,3.70
2019-03-19T23:22:16.952Z,3.77
2019-03-19T23:24:46.981Z,6.20
2019-03-19T23:27:17.021Z,4.57
2019-03-19T23:29:47.022Z,3.83
2019-03-19T23:32:17.024Z,4.40
2019-03-19T23:34:47.086Z,5.90
2019-03-19T23:37:17.157Z,4.80
2019-03-19T23:39:47.097Z,4.50
2019-03-19T23:42:17.141Z,4.57
2019-03-19T23:44:47.160Z,12.70
2019-03-19T23:47:17.121Z,4.80
2019-03-19T23:49:47.149Z,4.37
2019-03-19T23:52:17.194Z,5.87
2019-03-19T23:54:47.249Z,4.90
2019-03-19T23:57:17.284Z,4.63
2019-03-19T23:59:47.237Z,4.60
